Time;durP1;ratioP1;P1;durP2;ratioP2;P2;SDS_P1;SDS_P2;PMS_P1;PMS_P2;Temp;Humidity;BMP_temperature;BMP_pressure;BME280_temperature;BME280_humidity;BME280_pressure;Samples;Min_cycle;Max_cycle;Signal;HPM_P1;HPM_P2
2023/01/12 00:00:48;;;;;;;1999.90;999.90;;;11.80;99.90;;;;;;4995967;28;20038;-80
2023/01/12 00:03:13;;;;;;;1999.90;999.90;;;11.80;99.90;;;;;;4996437;28;20061;-82
2023/01/12 00:05:39;;;;;;;1999.90;999.90;;;11.70;99.90;;;;;;4995531;28;20026;-80
2023/01/12 00:08:05;;;;;;;1999.90;999.90;;;11.60;99.90;;;;;;4996071;28;20030;-80
2023/01/12 00:10:30;;;;;;;1999.90;999.90;;;11.70;99.90;;;;;;4994724;28;20025;-82
2023/01/12 00:12:57;;;;;;;1999.90;999.90;;;11.80;99.90;;;;;;4995817;28;20085;-81
2023/01/12 00:18:06;;;;;;;1999.90;999.90;;;11.80;99.90;;;;;;4996106;28;20089;-81
2023/01/12 00:20:32;;;;;;;1999.90;999.90;;;11.70;99.90;;;;;;4993952;28;20050;-80
2023/01/12 00:22:57;;;;;;;1999.90;999.90;;;11.70;99.90;;;;;;5006087;28;20050;-80
2023/01/12 00:25:23;;;;;;;1999.90;999.90;;;11.80;99.90;;;;;;5014359;28;20044;-81
2023/01/12 00:27:49;;;;;;;1999.90;999.90;;;11.80;99.90;;;;;;5015060;28;20036;-81
2023/01/12 00:30:14;;;;;;;1999.90;999.90;;;11.80;99.90;;;;;;5015029;28;20034;-81
2023/01/12 00:32:40;;;;;;;1999.90;999.90;;;11.70;99.90;;;;;;5015453;28;20029;-80
2023/01/12 00:35:06;;;;;;;1999.90;999.90;;;11.80;99.90;;;;;;5015531;28;20112;-80
2023/01/12 00:37:33;;;;;;;1999.90;999.90;;;11.90;99.90;;;;;;5015147;28;20108;-80
2023/01/12 00:39:58;;;;;;;1999.90;999.90;;;12.00;99.90;;;;;;5013102;28;20034;-82
2023/01/12 00:45:21;;;;;;;1999.90;999.90;;;11.90;99.90;;;;;;5016041;28;20033;-80
2023/01/12 00:47:46;;;;;;;1999.90;999.90;;;11.90;99.90;;;;;;5016076;28;20014;-79
2023/01/12 00:50:13;;;;;;;1999.90;999.90;;;12.00;99.90;;;;;;5015587;28;20555;-80
2023/01/12 00:52:39;;;;;;;1999.90;999.90;;;11.90;99.90;;;;;;5018549;28;20027;-84
2023/01/12 00:55:05;;;;;;;1999.90;999.90;;;11.90;99.90;;;;;;4996541;28;20087;-82
2023/01/12 00:57:31;;;;;;;1999.90;999.90;;;12.00;99.90;;;;;;5011603;28;20026;-80
2023/01/12 00:59:58;;;;;;;1999.90;999.90;;;12.00;99.90;;;;;;5005699;28;20040;-80
2023/01/12 01:02:27;;;;;;;1999.90;999.90;;;11.90;99.90;;;;;;4997246;28;20023;-80
2023/01/12 01:04:53;;;;;;;1999.90;999.90;;;11.80;99.90;;;;;;4997232;28;20121;-82
2023/01/12 01:07:22;;;;;;;1999.90;999.90;;;11.80;99.90;;;;;;4998564;28;20497;-80
2023/01/12 01:09:48;;;;;;;1999.90;999.90;;;11.80;99.90;;;;;;4996981;28;20069;-80
2023/01/12 01:12:14;;;;;;;1999.90;999.90;;;11.80;99.90;;;;;;4995029;28;20035;-79
2023/01/12 01:14:40;;;;;;;1999.90;999.90;;;11.80;99.90;;;;;;4995041;28;20030;-81
2023/01/12 01:17:05;;;;;;;1999.90;999.90;;;11.80;99.90;;;;;;4994572;28;20019;-80
2023/01/12 01:19:31;;;;;;;1999.90;999.90;;;11.80;99.90;;;;;;4995538;28;20030;-83
2023/01/12 01:21:57;;;;;;;1999.90;999.90;;;11.80;99.90;;;;;;4994260;28;20030;-80
2023/01/12 01:24:22;;;;;;;1999.90;999.90;;;11.80;99.90;;;;;;4994913;28;20035;-80
2023/01/12 01:26:49;;;;;;;1999.90;999.90;;;11.80;99.90;;;;;;4994621;28;20033;-82
2023/01/12 01:29:15;;;;;;;1999.90;999.90;;;11.80;99.90;;;;;;5009739;28;20027;-80
2023/01/12 01:31:40;;;;;;;1999.90;999.90;;;11.80;99.90;;;;;;4994575;28;20156;-80
2023/01/12 01:34:06;;;;;;;1999.90;999.90;;;11.80;99.90;;;;;;4994557;28;20030;-83
2023/01/12 01:36:32;;;;;;;1999.90;999.90;;;11.90;99.90;;;;;;5009604;28;20108;-80
2023/01/12 01:38:58;;;;;;;1999.90;999.90;;;11.90;99.90;;;;;;4994875;28;20022;-80
2023/01/12 01:41:30;;;;;;;1999.90;999.90;;;12.00;99.90;;;;;;4993984;28;20035;-80
2023/01/12 01:44:03;;;;;;;1999.90;999.90;;;12.00;99.90;;;;;;4994418;28;20034;-80
2023/01/12 01:46:52;;;;;;;1999.90;999.90;;;12.00;99.90;;;;;;5008209;28;20025;-84
2023/01/12 01:49:40;;;;;;;1999.90;999.90;;;12.00;99.90;;;;;;5012585;28;20030;-80
2023/01/12 01:52:22;;;;;;;1999.90;999.90;;;12.00;99.90;;;;;;5013691;28;20021;-79
2023/01/12 01:55:07;;;;;;;1999.90;999.90;;;12.00;99.90;;;;;;4994257;28;20542;-80
2023/01/12 01:57:41;;;;;;;1999.90;999.90;;;12.00;99.90;;;;;;4994011;28;20037;-81
2023/01/12 02:00:09;;;;;;;1999.90;999.90;;;12.00;99.90;;;;;;4994354;28;20374;-82
2023/01/12 02:02:37;;;;;;;1999.90;999.90;;;12.00;99.90;;;;;;4993940;28;20037;-85
2023/01/12 02:05:03;;;;;;;1999.90;999.90;;;11.90;99.90;;;;;;4994011;28;20022;-82
2023/01/12 02:07:28;;;;;;;1999.90;999.90;;;12.10;99.90;;;;;;4994348;28;20027;-82
2023/01/12 02:09:54;;;;;;;1999.90;999.90;;;12.10;99.90;;;;;;4993844;28;20530;-83
2023/01/12 02:17:58;;;;;;;1999.90;999.90;;;12.10;99.90;;;;;;4994026;28;20045;-83
2023/01/12 02:21:02;;;;;;;1999.90;999.90;;;12.20;99.90;;;;;;4993555;28;20038;-84
2023/01/12 02:24:00;;;;;;;1999.90;999.90;;;12.10;99.90;;;;;;4990227;28;20066;-84
2023/01/12 02:26:32;;;;;;;1999.90;999.90;;;12.10;99.90;;;;;;4993149;28;20556;-83
2023/01/12 02:29:03;;;;;;;1999.90;999.90;;;12.10;99.90;;;;;;4993966;28;20022;-82
2023/01/12 02:31:42;;;;;;;1999.90;999.90;;;12.10;99.90;;;;;;4993586;28;20029;-85
2023/01/12 02:34:27;;;;;;;1999.90;999.90;;;12.00;99.90;;;;;;4993522;28;20026;-82
2023/01/12 02:37:03;;;;;;;1999.90;999.90;;;12.00;99.90;;;;;;4993451;28;20041;-82
2023/01/12 02:39:31;;;;;;;1999.90;999.90;;;12.00;99.90;;;;;;4993310;28;20485;-82
2023/01/12 02:42:40;;;;;;;1999.90;999.90;;;12.00;99.90;;;;;;4992330;28;20101;-84
2023/01/12 02:45:17;;;;;;;1999.90;999.90;;;12.00;99.90;;;;;;4996181;28;20586;-83
2023/01/12 02:48:05;;;;;;;1999.90;999.90;;;12.00;99.90;;;;;;5011467;28;20082;-85
2023/01/12 02:50:40;;;;;;;1999.90;999.90;;;12.00;99.90;;;;;;5012559;28;20026;-83
2023/01/12 02:53:13;;;;;;;1999.90;999.90;;;12.10;99.90;;;;;;5006409;28;20050;-82
2023/01/12 02:55:40;;;;;;;1999.90;999.90;;;12.00;99.90;;;;;;5008237;28;20039;-83
2023/01/12 02:58:09;;;;;;;1999.90;999.90;;;12.00;99.90;;;;;;4992763;28;20038;-84
2023/01/12 03:00:37;;;;;;;1999.90;999.90;;;12.00;99.90;;;;;;4993048;28;20030;-81
2023/01/12 03:03:05;;;;;;;1999.90;999.90;;;12.00;99.90;;;;;;4993149;28;20080;-83
2023/01/12 03:05:30;;;;;;;1999.90;999.90;;;12.10;99.90;;;;;;5008057;28;20057;-83
2023/01/12 03:08:02;;;;;;;1999.90;999.90;;;12.20;99.90;;;;;;4993068;28;20018;-84
2023/01/12 03:10:52;;;;;;;1999.90;999.90;;;12.10;99.90;;;;;;4992754;28;20030;-83
2023/01/12 03:13:21;;;;;;;1999.90;999.90;;;12.20;99.90;;;;;;4992275;28;20015;-83
2023/01/12 03:15:50;;;;;;;1999.90;999.90;;;12.10;99.90;;;;;;4991440;28;20121;-83
2023/01/12 03:18:37;;;;;;;1999.90;999.90;;;12.00;99.90;;;;;;4992885;28;20052;-88
2023/01/12 03:21:12;;;;;;;1999.90;999.90;;;12.00;99.90;;;;;;4992924;28;20054;-82
2023/01/12 03:23:44;;;;;;;1999.90;999.90;;;12.10;99.90;;;;;;5008064;28;20029;-83
2023/01/12 03:26:12;;;;;;;1999.90;999.90;;;12.00;99.90;;;;;;4992332;28;20511;-87
2023/01/12 03:28:42;;;;;;;1999.90;999.90;;;12.00;99.90;;;;;;4992927;28;20493;-82
2023/01/12 03:31:10;;;;;;;1999.90;999.90;;;12.10;99.90;;;;;;4992476;28;20046;-82
2023/01/12 03:33:39;;;;;;;1999.90;999.90;;;12.10;99.90;;;;;;4991630;28;20117;-81
2023/01/12 03:36:16;;;;;;;1999.90;999.90;;;12.10;99.90;;;;;;4992326;28;20552;-86
2023/01/12 03:38:55;;;;;;;1999.90;999.90;;;12.10;99.90;;;;;;4992587;28;20040;-84
2023/01/12 03:41:37;;;;;;;1999.90;999.90;;;12.20;99.90;;;;;;4991218;28;20088;-82
2023/01/12 03:44:08;;;;;;;1999.90;999.90;;;12.10;99.90;;;;;;4991893;28;20030;-83
2023/01/12 03:46:42;;;;;;;1999.90;999.90;;;12.10;99.90;;;;;;5007156;28;20080;-85
2023/01/12 03:49:23;;;;;;;1999.90;999.90;;;12.20;99.90;;;;;;5010846;28;20029;-82
2023/01/12 03:51:50;;;;;;;1999.90;999.90;;;12.10;99.90;;;;;;5012069;28;20022;-82
2023/01/12 03:54:18;;;;;;;1999.90;999.90;;;12.20;99.90;;;;;;4996085;28;20053;-82
2023/01/12 03:56:45;;;;;;;1999.90;999.90;;;12.10;99.90;;;;;;4991144;28;20019;-82
2023/01/12 03:59:12;;;;;;;1999.90;999.90;;;12.10;99.90;;;;;;5007527;28;20118;-82
2023/01/12 04:01:40;;;;;;;1999.90;999.90;;;12.10;99.90;;;;;;4991148;28;20460;-84
2023/01/12 04:04:06;;;;;;;1999.90;999.90;;;12.00;99.90;;;;;;4992510;28;20022;-83
2023/01/12 04:06:31;;;;;;;1999.90;999.90;;;12.10;99.90;;;;;;4990888;28;20026;-83
2023/01/12 04:08:57;;;;;;;1999.90;999.90;;;12.10;99.90;;;;;;4992635;28;20030;-82
2023/01/12 04:14:06;;;;;;;1999.90;999.90;;;12.10;99.90;;;;;;4992234;28;20037;-84
2023/01/12 04:16:32;;;;;;;1999.90;999.90;;;12.20;99.90;;;;;;4992648;28;20097;-82
2023/01/12 04:18:58;;;;;;;1999.90;999.90;;;12.20;99.90;;;;;;4991741;28;20038;-86
2023/01/12 04:24:07;;;;;;;1999.90;999.90;;;12.20;99.90;;;;;;5012660;28;20036;-83
2023/01/12 04:26:33;;;;;;;1999.90;999.90;;;12.20;99.90;;;;;;5015069;28;20759;-84
2023/01/12 04:28:58;;;;;;;1999.90;999.90;;;12.20;99.90;;;;;;5015602;28;20018;-82
2023/01/12 04:31:24;;;;;;;1999.90;999.90;;;12.10;99.90;;;;;;5015264;28;20049;-82
2023/01/12 04:33:50;;;;;;;1999.90;999.90;;;12.10;99.90;;;;;;5014087;28;20540;-82
2023/01/12 04:36:15;;;;;;;1999.90;999.90;;;12.10;99.90;;;;;;5015224;28;20061;-82
2023/01/12 04:38:41;;;;;;;1999.90;999.90;;;12.10;99.90;;;;;;5015213;28;20044;-82
2023/01/12 04:41:07;;;;;;;1999.90;999.90;;;12.10;99.90;;;;;;5013762;28;20048;-82
2023/01/12 04:43:33;;;;;;;1999.90;999.90;;;12.10;99.90;;;;;;5013097;28;20037;-81
2023/01/12 04:46:08;;;;;;;1999.90;999.90;;;12.20;99.90;;;;;;5014972;28;20034;-82
2023/01/12 04:48:34;;;;;;;1999.90;999.90;;;12.20;99.90;;;;;;5014990;28;20041;-82
2023/01/12 04:51:00;;;;;;;1999.90;999.90;;;12.20;99.90;;;;;;5015106;28;20026;-82
2023/01/12 04:53:26;;;;;;;1999.90;999.90;;;12.20;99.90;;;;;;5004351;28;20022;-85
2023/01/12 04:55:52;;;;;;;1999.90;999.90;;;12.20;99.90;;;;;;4995363;28;20057;-83
2023/01/12 04:58:18;;;;;;;1999.90;999.90;;;12.20;99.90;;;;;;5001513;28;20064;-86
2023/01/12 05:00:43;;;;;;;1999.90;999.90;;;12.20;99.90;;;;;;5014588;28;20038;-85
2023/01/12 05:03:13;;;;;;;1999.90;999.90;;;12.10;99.90;;;;;;5014679;28;20030;-86
2023/01/12 05:05:39;;;;;;;1999.90;999.90;;;12.10;99.90;;;;;;5014754;28;20162;-82
2023/01/12 05:11:00;;;;;;;1999.90;999.90;;;12.00;99.90;;;;;;5015021;28;20063;-84
2023/01/12 05:13:28;;;;;;;1999.90;999.90;;;11.90;99.90;;;;;;5013234;28;20053;-82
2023/01/12 05:15:54;;;;;;;1999.90;999.90;;;11.90;99.90;;;;;;5014634;28;20029;-82
2023/01/12 05:18:20;;;;;;;1999.90;999.90;;;11.90;99.90;;;;;;5014366;28;20033;-82
2023/01/12 05:20:45;;;;;;;1999.90;999.90;;;11.90;99.90;;;;;;5014338;28;20042;-84
2023/01/12 05:23:11;;;;;;;1999.90;999.90;;;11.90;99.90;;;;;;5014235;28;20400;-82
2023/01/12 05:25:37;;;;;;;1999.90;999.90;;;11.90;99.90;;;;;;5014098;28;20499;-84
2023/01/12 05:28:02;;;;;;;1999.90;999.90;;;11.80;99.90;;;;;;5014185;28;20563;-82
2023/01/12 05:30:29;;;;;;;1999.90;999.90;;;11.80;99.90;;;;;;5014216;28;20029;-85
2023/01/12 05:32:54;;;;;;;1999.90;999.90;;;11.90;99.90;;;;;;5014601;28;20033;-85
2023/01/12 05:35:20;;;;;;;1999.90;999.90;;;11.90;99.90;;;;;;5014053;28;20038;-81
2023/01/12 05:37:46;;;;;;;1999.90;999.90;;;12.00;99.90;;;;;;5014202;28;20500;-83
2023/01/12 05:40:12;;;;;;;1999.90;999.90;;;12.00;99.90;;;;;;5014175;28;20133;-82
2023/01/12 05:45:22;;;;;;;1999.90;999.90;;;12.00;99.90;;;;;;5039923;28;20025;-82
2023/01/12 05:47:56;;;;;;;1999.90;999.90;;;12.10;99.90;;;;;;5039666;28;20022;-82
2023/01/12 05:50:22;;;;;;;1999.90;999.90;;;12.20;99.90;;;;;;5039678;28;20014;-84
2023/01/12 05:52:51;;;;;;;1999.90;999.90;;;12.20;99.90;;;;;;5035322;28;20030;-85
2023/01/12 05:55:16;;;;;;;1999.90;999.90;;;12.20;99.90;;;;;;5036750;28;20018;-83
2023/01/12 05:57:42;;;;;;;1999.90;999.90;;;12.20;99.90;;;;;;5017758;28;20045;-84
2023/01/12 06:00:08;;;;;;;1999.90;999.90;;;12.20;99.90;;;;;;5014752;28;20037;-82
2023/01/12 06:02:34;;;;;;;1999.90;999.90;;;12.20;99.90;;;;;;5016070;28;20033;-82
2023/01/12 06:04:59;;;;;;;1999.90;999.90;;;12.30;99.90;;;;;;5015596;28;20034;-82
2023/01/12 06:07:25;;;;;;;1999.90;999.90;;;12.30;99.90;;;;;;5016415;28;20045;-83
2023/01/12 06:09:51;;;;;;;1999.90;999.90;;;12.30;99.90;;;;;;5014321;28;20038;-83
2023/01/12 06:15:01;;;;;;;1999.90;999.90;;;12.40;99.90;;;;;;5013469;28;20568;-82
2023/01/12 06:17:26;;;;;;;1999.90;999.90;;;12.30;99.90;;;;;;5013576;28;20053;-81
2023/01/12 06:19:52;;;;;;;1999.90;999.90;;;12.30;99.90;;;;;;5011771;28;20066;-81
2023/01/12 06:22:18;;;;;;;1999.90;999.90;;;12.30;99.90;;;;;;5012838;28;20026;-81
2023/01/12 06:24:47;;;;;;;1999.90;999.90;;;12.30;99.90;;;;;;5011445;28;20542;-83
2023/01/12 06:27:15;;;;;;;1999.90;999.90;;;12.30;99.90;;;;;;5012650;28;20014;-83
2023/01/12 06:29:42;;;;;;;1999.90;999.90;;;12.30;99.90;;;;;;5012948;28;20137;-82
2023/01/12 06:32:07;;;;;;;1999.90;999.90;;;12.40;99.90;;;;;;5013148;28;20026;-81
2023/01/12 06:34:34;;;;;;;1999.90;999.90;;;12.30;99.90;;;;;;5011529;28;20396;-84
2023/01/12 06:37:01;;;;;;;1999.90;999.90;;;12.30;99.90;;;;;;5006720;28;20026;-82
2023/01/12 06:39:28;;;;;;;1999.90;999.90;;;12.30;99.90;;;;;;5010294;28;20021;-81
2023/01/12 06:44:38;;;;;;;1999.90;999.90;;;12.30;99.90;;;;;;5007050;28;20586;-82
2023/01/12 06:47:03;;;;;;;1999.90;999.90;;;12.40;99.90;;;;;;5005967;28;20105;-81
2023/01/12 06:49:29;;;;;;;1999.90;999.90;;;12.40;99.90;;;;;;5011726;28;20029;-80
2023/01/12 06:51:55;;;;;;;1999.90;999.90;;;12.40;99.90;;;;;;5005061;28;20455;-83
2023/01/12 06:54:20;;;;;;;1999.90;999.90;;;12.40;99.90;;;;;;5009455;28;20404;-84
2023/01/12 06:56:46;;;;;;;1999.90;999.90;;;12.40;99.90;;;;;;5016443;28;20630;-84
2023/01/12 06:59:12;;;;;;;1999.90;999.90;;;12.40;99.90;;;;;;5019833;28;20555;-83
2023/01/12 07:01:38;;;;;;;1999.90;999.90;;;12.40;99.90;;;;;;5015648;28;20021;-81
2023/01/12 07:04:04;;;;;;;1999.90;999.90;;;12.40;99.90;;;;;;5015518;28;20029;-81
2023/01/12 07:06:31;;;;;;;1999.90;999.90;;;12.30;99.90;;;;;;5009538;28;20578;-83
2023/01/12 07:08:57;;;;;;;1999.90;999.90;;;12.30;99.90;;;;;;5011488;28;20030;-82
2023/01/12 07:11:23;;;;;;;1999.90;999.90;;;12.30;99.90;;;;;;5012638;28;20053;-83
2023/01/12 07:13:49;;;;;;;1999.90;999.90;;;12.30;99.90;;;;;;5021540;28;20037;-80
2023/01/12 07:16:15;;;;;;;1999.90;999.90;;;12.30;99.90;;;;;;5030651;28;20036;-82
2023/01/12 07:18:40;;;;;;;1999.90;999.90;;;12.30;99.90;;;;;;5020142;28;20543;-83
2023/01/12 07:21:08;;;;;;;1999.90;999.90;;;12.30;99.90;;;;;;5004025;28;20057;-82
2023/01/12 07:23:34;;;;;;;1999.90;999.90;;;12.40;99.90;;;;;;5001501;28;20509;-83
2023/01/12 07:26:00;;;;;;;1999.90;999.90;;;12.40;99.90;;;;;;5006653;28;20563;-81
2023/01/12 07:28:26;;;;;;;1999.90;999.90;;;12.40;99.90;;;;;;5009947;28;20033;-83
2023/01/12 07:30:51;;;;;;;1999.90;999.90;;;12.40;99.90;;;;;;5015741;28;20378;-82
2023/01/12 07:33:17;;;;;;;1999.90;999.90;;;12.40;99.90;;;;;;5009430;28;20033;-80
2023/01/12 07:35:43;;;;;;;1999.90;999.90;;;12.40;99.90;;;;;;5008118;28;20112;-84
2023/01/12 07:38:09;;;;;;;1999.90;999.90;;;12.40;99.90;;;;;;5003439;28;20057;-81
2023/01/12 07:40:35;;;;;;;1999.90;999.90;;;12.40;99.90;;;;;;5007937;28;20034;-83
2023/01/12 07:43:06;;;;;;;1999.90;999.90;;;12.40;99.90;;;;;;5007478;28;20503;-81
2023/01/12 07:45:32;;;;;;;1999.90;999.90;;;12.40;99.90;;;;;;5008822;28;20026;-82
2023/01/12 07:47:58;;;;;;;1999.90;999.90;;;12.40;99.90;;;;;;5007351;28;20036;-83
2023/01/12 07:50:25;;;;;;;1999.90;999.90;;;12.40;99.90;;;;;;5009687;28;20193;-81
2023/01/12 07:52:51;;;;;;;1999.90;999.90;;;12.50;99.90;;;;;;5009284;28;20037;-81
2023/01/12 07:55:18;;;;;;;1999.90;999.90;;;12.50;99.90;;;;;;5007158;28;20452;-79
2023/01/12 07:58:02;;;;;;;1999.90;999.90;;;12.50;99.90;;;;;;5009081;28;20037;-80
2023/01/12 08:00:28;;;;;;;1999.90;999.90;;;12.50;99.90;;;;;;5003978;28;20029;-78
2023/01/12 08:03:01;;;;;;;1999.90;999.90;;;12.50;99.90;;;;;;5010044;28;20333;-79
2023/01/12 08:05:27;;;;;;;1999.90;999.90;;;12.50;99.90;;;;;;5009460;28;20032;-81
2023/01/12 08:07:53;;;;;;;1999.90;999.90;;;12.50;99.90;;;;;;5011330;28;20050;-78
2023/01/12 08:10:18;;;;;;;1999.90;999.90;;;12.50;99.90;;;;;;5010836;28;20076;-83
2023/01/12 08:12:44;;;;;;;1999.90;999.90;;;12.50;99.90;;;;;;5012342;28;20666;-83
2023/01/12 08:15:11;;;;;;;1999.90;999.90;;;12.60;99.90;;;;;;5013918;28;20397;-80
2023/01/12 08:17:45;;;;;;;1999.90;999.90;;;12.60;99.90;;;;;;5014750;28;20551;-83
2023/01/12 08:20:16;;;;;;;1999.90;999.90;;;12.60;99.90;;;;;;5010058;28;20065;-78
2023/01/12 08:22:46;;;;;;;1999.90;999.90;;;12.60;99.90;;;;;;5006241;28;20041;-80
2023/01/12 08:25:17;;;;;;;1999.90;999.90;;;12.60;99.90;;;;;;5010457;28;20034;-78
2023/01/12 08:27:46;;;;;;;1999.90;999.90;;;12.60;99.90;;;;;;5012905;28;20036;-80
2023/01/12 08:30:14;;;;;;;1999.90;999.90;;;12.50;99.90;;;;;;5010204;28;20036;-79
2023/01/12 08:32:41;;;;;;;1999.90;999.90;;;12.20;99.90;;;;;;5003992;28;20034;-78
2023/01/12 08:35:07;;;;;;;1999.90;999.90;;;12.00;99.90;;;;;;5016816;28;20036;-77
2023/01/12 08:37:33;;;;;;;1999.90;999.90;;;11.80;99.90;;;;;;5012321;28;20045;-79
2023/01/12 08:40:00;;;;;;;1999.90;999.90;;;11.70;99.90;;;;;;5010924;28;20033;-78
2023/01/12 08:42:29;;;;;;;1999.90;999.90;;;11.70;99.90;;;;;;5008620;28;20065;-79
2023/01/12 08:44:55;;;;;;;1999.90;999.90;;;11.70;99.90;;;;;;5009222;28;20034;-79
2023/01/12 08:47:26;;;;;;;1999.90;999.90;;;11.70;99.90;;;;;;5013002;28;20037;-79
2023/01/12 08:49:52;;;;;;;1999.90;999.90;;;11.80;99.90;;;;;;5010561;28;20018;-80
2023/01/12 08:52:18;;;;;;;1999.90;999.90;;;11.90;99.90;;;;;;5012071;28;20499;-81
2023/01/12 08:54:44;;;;;;;1999.90;999.90;;;12.00;99.90;;;;;;5010197;28;20068;-83
2023/01/12 08:57:09;;;;;;;1999.90;999.90;;;12.10;99.90;;;;;;5007430;28;20598;-81
2023/01/12 08:59:35;;;;;;;1999.90;999.90;;;12.20;99.90;;;;;;5003150;28;20813;-80
2023/01/12 09:02:01;;;;;;;1999.90;999.90;;;12.20;99.90;;;;;;5002335;28;20034;-80
2023/01/12 09:04:27;;;;;;;1999.90;999.90;;;12.20;99.90;;;;;;5011041;28;20026;-81
2023/01/12 09:06:52;;;;;;;1999.90;999.90;;;12.10;99.90;;;;;;5015911;28;20029;-80
2023/01/12 09:09:19;;;;;;;1999.90;999.90;;;11.90;99.90;;;;;;5009442;28;20113;-79
2023/01/12 09:11:45;;;;;;;1999.90;999.90;;;11.70;99.90;;;;;;5009111;28;20041;-79
2023/01/12 09:14:12;;;;;;;1999.90;999.90;;;11.70;99.90;;;;;;5011378;28;20468;-77
2023/01/12 09:16:39;;;;;;;1999.90;999.90;;;11.70;99.90;;;;;;5008118;28;20037;-78
2023/01/12 09:19:05;;;;;;;1999.90;999.90;;;11.70;99.90;;;;;;5010389;28;20038;-79
2023/01/12 09:21:31;;;;;;;1999.90;999.90;;;11.70;99.90;;;;;;4993507;28;20089;-87
2023/01/12 09:23:58;;;;;;;1999.90;999.90;;;11.80;99.90;;;;;;5005558;28;20056;-81
2023/01/12 09:26:32;;;;;;;1999.90;999.90;;;11.80;99.90;;;;;;5008293;28;20038;-81
2023/01/12 09:29:00;;;;;;;1999.90;999.90;;;11.90;99.90;;;;;;5005108;28;20477;-82
2023/01/12 09:31:28;;;;;;;1999.90;999.90;;;12.00;99.90;;;;;;5005448;28;20108;-81
2023/01/12 09:33:55;;;;;;;1999.90;999.90;;;12.00;99.90;;;;;;5009284;28;20029;-81
2023/01/12 09:36:41;;;;;;;1999.90;999.90;;;12.10;99.90;;;;;;5011541;28;20138;-75
2023/01/12 09:39:07;;;;;;;1999.90;999.90;;;12.20;99.90;;;;;;5015508;28;20041;-82
2023/01/12 09:47:38;;;;;;;1999.90;999.90;;;12.50;99.90;;;;;;5011614;28;20114;-84
2023/01/12 09:50:11;;;;;;;1999.90;999.90;;;12.50;99.90;;;;;;5002562;28;20049;-79
2023/01/12 09:52:37;;;;;;;1999.90;999.90;;;12.70;99.90;;;;;;5004736;28;20030;-77
2023/01/12 09:55:03;;;;;;;1999.90;999.90;;;12.70;99.90;;;;;;5009534;28;20048;-80
2023/01/12 09:57:54;;;;;;;1999.90;999.90;;;12.70;99.90;;;;;;5008808;28;20037;-81
2023/01/12 10:00:20;;;;;;;1999.90;999.90;;;12.80;99.90;;;;;;5018284;28;20057;-85
2023/01/12 10:03:04;;;;;;;1999.90;999.90;;;12.80;99.90;;;;;;5008522;28;20025;-83
2023/01/12 10:05:42;;;;;;;1999.90;999.90;;;12.70;99.90;;;;;;5008374;28;20054;-78
2023/01/12 10:08:22;;;;;;;1999.90;999.90;;;12.60;99.90;;;;;;5003845;28;20032;-77
2023/01/12 10:11:14;;;;;;;1999.90;999.90;;;12.70;99.90;;;;;;5011484;28;20037;-83
2023/01/12 10:13:43;;;;;;;1999.90;999.90;;;12.80;99.90;;;;;;5006146;28;20076;-77
2023/01/12 10:16:23;;;;;;;1999.90;999.90;;;12.80;99.90;;;;;;5003849;28;20034;-78
2023/01/12 10:18:55;;;;;;;1999.90;999.90;;;12.90;99.90;;;;;;5008032;28;20022;-80
2023/01/12 10:21:22;;;;;;;1999.90;999.90;;;12.90;99.90;;;;;;5009550;28;20137;-80
2023/01/12 10:23:49;;;;;;;1999.90;999.90;;;12.90;99.90;;;;;;5009545;28;20109;-81
2023/01/12 10:26:21;;;;;;;1999.90;999.90;;;13.00;99.90;;;;;;5014927;28;20094;-80
2023/01/12 10:28:51;;;;;;;1999.90;999.90;;;13.10;99.90;;;;;;5012853;28;20642;-83
2023/01/12 10:31:22;;;;;;;1999.90;999.90;;;13.10;99.90;;;;;;5011312;28;20029;-80
2023/01/12 10:34:08;;;;;;;1999.90;999.90;;;13.10;99.90;;;;;;5009890;28;20116;-79
2023/01/12 10:36:48;;;;;;;1999.90;999.90;;;13.10;99.90;;;;;;5005568;28;20074;-78
2023/01/12 10:39:30;;;;;;;1999.90;999.90;;;13.10;99.90;;;;;;5006273;28;20057;-79
2023/01/12 10:45:12;;;;;;;1999.90;999.90;;;13.20;99.90;;;;;;5008233;28;20091;-79
2023/01/12 10:47:38;;;;;;;1999.90;999.90;;;13.20;99.90;;;;;;5008534;28;20026;-77
2023/01/12 10:50:31;;;;;;;1999.90;999.90;;;13.20;99.90;;;;;;5009180;28;20030;-81
2023/01/12 10:53:03;;;;;;;1999.90;999.90;;;13.10;99.90;;;;;;5008868;28;20049;-81
2023/01/12 10:55:32;;;;;;;1999.90;999.90;;;13.10;99.90;;;;;;5006835;28;20408;-80
2023/01/12 10:57:59;;;;;;;1999.90;999.90;;;13.00;99.90;;;;;;5012267;28;20037;-79
2023/01/12 11:00:26;;;;;;;1999.90;999.90;;;12.90;99.90;;;;;;5010317;28;20034;-79
2023/01/12 11:02:52;;;;;;;1999.90;999.90;;;12.90;99.90;;;;;;5007603;28;20065;-79
2023/01/12 11:05:37;;;;;;;1999.90;999.90;;;12.90;99.90;;;;;;5006486;28;20033;-78
2023/01/12 11:08:23;;;;;;;1999.90;999.90;;;12.80;99.90;;;;;;5005357;28;20124;-79
2023/01/12 11:10:48;;;;;;;1999.90;999.90;;;12.80;99.90;;;;;;5007321;28;20149;-78
2023/01/12 11:13:36;;;;;;;1999.90;999.90;;;12.80;99.90;;;;;;5004565;28;20042;-80
2023/01/12 11:16:21;;;;;;;1999.90;999.90;;;12.80;99.90;;;;;;4998187;28;20037;-80
2023/01/12 11:18:55;;;;;;;1999.90;999.90;;;12.80;99.90;;;;;;5010390;28;20085;-78
2023/01/12 11:21:26;;;;;;;1999.90;999.90;;;12.90;99.90;;;;;;5006287;28;20061;-76
2023/01/12 11:24:04;;;;;;;1999.90;999.90;;;12.80;99.90;;;;;;5009742;28;20030;-78
2023/01/12 11:26:37;;;;;;;1999.90;999.90;;;12.80;99.90;;;;;;5014500;28;20571;-78
2023/01/12 11:29:26;;;;;;;1999.90;999.90;;;13.00;99.90;;;;;;5030708;28;20152;-77
2023/01/12 11:31:57;;;;;;;1999.90;999.90;;;13.20;99.90;;;;;;5031774;28;20045;-78
2023/01/12 11:34:31;;;;;;;1999.90;999.90;;;13.30;99.90;;;;;;5037607;28;20045;-78
2023/01/12 11:37:10;;;;;;;1999.90;999.90;;;13.30;99.90;;;;;;5029124;28;20040;-78
2023/01/12 11:39:37;;;;;;;1999.90;999.90;;;13.30;99.90;;;;;;5026617;28;20033;-78
2023/01/12 11:45:08;;;;;;;1999.90;999.90;;;13.30;99.90;;;;;;5018265;28;20084;-81
2023/01/12 11:47:41;;;;;;;1999.90;999.90;;;13.30;99.90;;;;;;5020559;28;20018;-78
2023/01/12 11:50:09;;;;;;;1999.90;999.90;;;13.30;99.90;;;;;;5029483;28;20037;-77
2023/01/12 11:52:36;;;;;;;1999.90;999.90;;;13.30;99.90;;;;;;5027438;28;20042;-79
2023/01/12 11:55:02;;;;;;;1999.90;999.90;;;13.30;99.90;;;;;;5012026;28;20080;-80
2023/01/12 11:57:40;;;;;;;1999.90;999.90;;;13.30;99.90;;;;;;5018377;28;20115;-79
2023/01/12 12:00:24;;;;;;;1999.90;999.90;;;13.30;99.90;;;;;;5015508;28;20029;-79
2023/01/12 12:02:56;;;;;;;1999.90;999.90;;;13.30;99.90;;;;;;5009185;28;20030;-81
2023/01/12 12:05:33;;;;;;;1999.90;999.90;;;13.40;99.90;;;;;;5014926;28;20036;-79
2023/01/12 12:08:02;;;;;;;1999.90;999.90;;;13.40;99.90;;;;;;5012407;28;20029;-80
2023/01/12 12:10:58;;;;;;;1999.90;999.90;;;13.40;99.90;;;;;;5023215;28;20113;-77
2023/01/12 12:13:46;;;;;;;1999.90;999.90;;;13.40;99.90;;;;;;5013585;28;20037;-83
2023/01/12 12:16:15;;;;;;;1999.90;999.90;;;13.50;99.90;;;;;;5020674;28;20026;-82
2023/01/12 12:18:50;;;;;;;1999.90;999.90;;;13.40;99.90;;;;;;5017926;28;20124;-80
2023/01/12 12:21:40;;;;;;;1999.90;999.90;;;13.30;99.90;;;;;;5022000;28;20050;-77
2023/01/12 12:24:29;;;;;;;1999.90;999.90;;;13.30;99.90;;;;;;5007198;28;20520;-80
2023/01/12 12:27:48;;;;;;;1999.90;999.90;;;13.30;99.90;;;;;;5025089;28;20037;-78
2023/01/12 12:30:39;;;;;;;1999.90;999.90;;;13.30;99.90;;;;;;4989785;28;20022;-78
2023/01/12 12:33:27;;;;;;;1999.90;999.90;;;13.30;99.90;;;;;;5012925;28;20022;-77
2023/01/12 12:36:03;;;;;;;1999.90;999.90;;;13.30;99.90;;;;;;5009895;28;20065;-78
2023/01/12 12:38:44;;;;;;;1999.90;999.90;;;13.30;99.90;;;;;;5007386;28;20042;-77
2023/01/12 12:45:16;;;;;;;1999.90;999.90;;;13.40;99.90;;;;;;5006870;28;20377;-75
2023/01/12 12:48:04;;;;;;;1999.90;999.90;;;13.30;99.90;;;;;;5004191;28;20082;-78
2023/01/12 12:50:38;;;;;;;1999.90;999.90;;;13.30;99.90;;;;;;5009005;28;20033;-76
2023/01/12 12:53:24;;;;;;;1999.90;999.90;;;13.30;99.90;;;;;;5010732;28;20040;-77
2023/01/12 12:55:51;;;;;;;1999.90;999.90;;;13.40;99.90;;;;;;5011865;28;20101;-75
2023/01/12 12:58:20;;;;;;;1999.90;999.90;;;13.40;99.90;;;;;;5013780;28;20033;-77